<?xml version="1.0" encoding="UTF-8" standalone="no" ?>
<gpx xmlns="http://www.topografix.com/GPX/1/1" xmlns:xsi="http://www.w3.org/2001/XMLSchema-instance" xsi:schemaLocation="http://www.topografix.com/GPX/1/1 http://www.topografix.com/GPX/1/1/gpx.xsd" version="1.1" creator="VisuGPX - https://www.visugpx.com">
  <metadata>
    <name>LaMontagne-Montmaur</name>
    <desc><![CDATA[LaMontagne-Montmaur]]></desc>
  </metadata>
  <trk>
    <name><![CDATA[OR-8075999--Montmaur:AccèsDévoluyDepuisMontmaur]]></name>
    <extensions>
      <line xmlns="http://www.topografix.com/GPX/gpx_style/0/2">
        <color>0000FF</color>
        <width>4</width>
      </line>
    </extensions>
    <trkseg>
      <trkpt lat="44.59931" lon="5.8684">
        <ele>1288</ele>
        <time>2017-11-03T13:22:35Z</time>
      </trkpt>
      <trkpt lat="44.59926" lon="5.86823">
        <ele>1287</ele>
        <time>2017-11-03T13:20:35Z</time>
      </trkpt>
      <trkpt lat="44.59908" lon="5.86815">
        <ele>1288</ele>
        <time>2017-11-03T13:18:35Z</time>
      </trkpt>
      <trkpt lat="44.59846" lon="5.8683">
        <ele>1289</ele>
        <time>2017-11-03T13:16:35Z</time>
      </trkpt>
      <trkpt lat="44.59829" lon="5.86843">
        <ele>1290</ele>
        <time>2017-11-03T13:14:35Z</time>
      </trkpt>
      <trkpt lat="44.5973" lon="5.86903">
        <ele>1288</ele>
        <time>2017-11-03T13:12:35Z</time>
      </trkpt>
      <trkpt lat="44.59701" lon="5.86937">
        <ele>1288</ele>
        <time>2017-11-03T13:10:35Z</time>
      </trkpt>
      <trkpt lat="44.59667" lon="5.87009">
        <ele>1288</ele>
        <time>2017-11-03T13:08:35Z</time>
      </trkpt>
      <trkpt lat="44.59598" lon="5.8711">
        <ele>1285</ele>
        <time>2017-11-03T13:06:35Z</time>
      </trkpt>
      <trkpt lat="44.59563" lon="5.87186">
        <ele>1285</ele>
        <time>2017-11-03T13:04:35Z</time>
      </trkpt>
      <trkpt lat="44.59532" lon="5.8727">
        <ele>1280</ele>
        <time>2017-11-03T13:02:35Z</time>
      </trkpt>
      <trkpt lat="44.59519" lon="5.874">
        <ele>1267</ele>
        <time>2017-11-03T13:00:35Z</time>
      </trkpt>
      <trkpt lat="44.59524" lon="5.87409">
        <ele>1268</ele>
        <time>2017-11-03T12:58:35Z</time>
      </trkpt>
      <trkpt lat="44.59523" lon="5.87424">
        <ele>1266</ele>
        <time>2017-11-03T12:56:35Z</time>
      </trkpt>
      <trkpt lat="44.5953" lon="5.87444">
        <ele>1267</ele>
        <time>2017-11-03T12:54:35Z</time>
      </trkpt>
      <trkpt lat="44.59529" lon="5.87458">
        <ele>1265</ele>
        <time>2017-11-03T12:52:35Z</time>
      </trkpt>
      <trkpt lat="44.59535" lon="5.87469">
        <ele>1266</ele>
        <time>2017-11-03T12:50:35Z</time>
      </trkpt>
      <trkpt lat="44.59539" lon="5.87533">
        <ele>1269</ele>
        <time>2017-11-03T12:48:35Z</time>
      </trkpt>
      <trkpt lat="44.5953" lon="5.87537">
        <ele>1268</ele>
        <time>2017-11-03T12:46:35Z</time>
      </trkpt>
      <trkpt lat="44.59512" lon="5.87531">
        <ele>1266</ele>
        <time>2017-11-03T12:44:35Z</time>
      </trkpt>
      <trkpt lat="44.59497" lon="5.87546">
        <ele>1268</ele>
        <time>2017-11-03T12:42:35Z</time>
      </trkpt>
      <trkpt lat="44.59467" lon="5.87559">
        <ele>1273</ele>
        <time>2017-11-03T12:40:35Z</time>
      </trkpt>
      <trkpt lat="44.59439" lon="5.87561">
        <ele>1275</ele>
        <time>2017-11-03T12:38:35Z</time>
      </trkpt>
      <trkpt lat="44.59418" lon="5.87587">
        <ele>1283</ele>
        <time>2017-11-03T12:36:35Z</time>
      </trkpt>
      <trkpt lat="44.59403" lon="5.87594">
        <ele>1283</ele>
        <time>2017-11-03T12:34:35Z</time>
      </trkpt>
      <trkpt lat="44.59409" lon="5.87603">
        <ele>1286</ele>
        <time>2017-11-03T12:32:35Z</time>
      </trkpt>
      <trkpt lat="44.59404" lon="5.87643">
        <ele>1293</ele>
        <time>2017-11-03T12:30:35Z</time>
      </trkpt>
      <trkpt lat="44.59383" lon="5.87667">
        <ele>1296</ele>
        <time>2017-11-03T12:28:35Z</time>
      </trkpt>
      <trkpt lat="44.5937" lon="5.87702">
        <ele>1304</ele>
        <time>2017-11-03T12:26:35Z</time>
      </trkpt>
      <trkpt lat="44.59356" lon="5.87736">
        <ele>1310</ele>
        <time>2017-11-03T12:24:35Z</time>
      </trkpt>
      <trkpt lat="44.59282" lon="5.87746">
        <ele>1306</ele>
        <time>2017-11-03T12:22:35Z</time>
      </trkpt>
      <trkpt lat="44.59259" lon="5.87755">
        <ele>1307</ele>
        <time>2017-11-03T12:20:35Z</time>
      </trkpt>
      <trkpt lat="44.59205" lon="5.87752">
        <ele>1301</ele>
        <time>2017-11-03T12:18:35Z</time>
      </trkpt>
      <trkpt lat="44.59063" lon="5.87849">
        <ele>1303</ele>
        <time>2017-11-03T12:16:35Z</time>
      </trkpt>
      <trkpt lat="44.58936" lon="5.87977">
        <ele>1305</ele>
        <time>2017-11-03T12:14:35Z</time>
      </trkpt>
      <trkpt lat="44.58765" lon="5.8819">
        <ele>1315</ele>
        <time>2017-11-03T12:12:35Z</time>
      </trkpt>
      <trkpt lat="44.58745" lon="5.88211">
        <ele>1317</ele>
        <time>2017-11-03T12:10:35Z</time>
      </trkpt>
      <trkpt lat="44.587" lon="5.88227">
        <ele>1312</ele>
        <time>2017-11-03T12:08:35Z</time>
      </trkpt>
      <trkpt lat="44.5864" lon="5.88319">
        <ele>1318</ele>
        <time>2017-11-03T12:06:35Z</time>
      </trkpt>
      <trkpt lat="44.58595" lon="5.88441">
        <ele>1315</ele>
        <time>2017-11-03T12:04:35Z</time>
      </trkpt>
      <trkpt lat="44.58605" lon="5.88489">
        <ele>1321</ele>
        <time>2017-11-03T12:02:35Z</time>
      </trkpt>
      <trkpt lat="44.58601" lon="5.88521">
        <ele>1323</ele>
        <time>2017-11-03T12:00:35Z</time>
      </trkpt>
      <trkpt lat="44.58577" lon="5.88571">
        <ele>1321</ele>
        <time>2017-11-03T11:58:35Z</time>
      </trkpt>
      <trkpt lat="44.58506" lon="5.88647">
        <ele>1321</ele>
        <time>2017-11-03T11:56:35Z</time>
      </trkpt>
      <trkpt lat="44.58457" lon="5.88714">
        <ele>1323</ele>
        <time>2017-11-03T11:54:35Z</time>
      </trkpt>
      <trkpt lat="44.58366" lon="5.88868">
        <ele>1318</ele>
        <time>2017-11-03T11:52:35Z</time>
      </trkpt>
      <trkpt lat="44.58371" lon="5.88883">
        <ele>1318</ele>
        <time>2017-11-03T11:50:35Z</time>
      </trkpt>
      <trkpt lat="44.58424" lon="5.88875">
        <ele>1323</ele>
        <time>2017-11-03T11:48:35Z</time>
      </trkpt>
      <trkpt lat="44.58436" lon="5.88884">
        <ele>1322</ele>
        <time>2017-11-03T11:46:35Z</time>
      </trkpt>
      <trkpt lat="44.58484" lon="5.88901">
        <ele>1321</ele>
        <time>2017-11-03T11:44:35Z</time>
      </trkpt>
      <trkpt lat="44.58533" lon="5.88953">
        <ele>1304</ele>
        <time>2017-11-03T11:42:35Z</time>
      </trkpt>
      <trkpt lat="44.58499" lon="5.88959">
        <ele>1300</ele>
        <time>2017-11-03T11:40:35Z</time>
      </trkpt>
      <trkpt lat="44.58474" lon="5.88953">
        <ele>1303</ele>
        <time>2017-11-03T11:38:35Z</time>
      </trkpt>
      <trkpt lat="44.5837" lon="5.89002">
        <ele>1293</ele>
        <time>2017-11-03T11:36:35Z</time>
      </trkpt>
      <trkpt lat="44.58326" lon="5.89053">
        <ele>1278</ele>
        <time>2017-11-03T11:34:35Z</time>
      </trkpt>
      <trkpt lat="44.58276" lon="5.89078">
        <ele>1269</ele>
        <time>2017-11-03T11:32:35Z</time>
      </trkpt>
      <trkpt lat="44.58245" lon="5.8908">
        <ele>1268</ele>
        <time>2017-11-03T11:30:35Z</time>
      </trkpt>
      <trkpt lat="44.582" lon="5.89062">
        <ele>1260</ele>
        <time>2017-11-03T11:28:35Z</time>
      </trkpt>
      <trkpt lat="44.58183" lon="5.89045">
        <ele>1261</ele>
        <time>2017-11-03T11:26:35Z</time>
      </trkpt>
      <trkpt lat="44.58131" lon="5.8904">
        <ele>1248</ele>
        <time>2017-11-03T11:24:35Z</time>
      </trkpt>
      <trkpt lat="44.58078" lon="5.88999">
        <ele>1247</ele>
        <time>2017-11-03T11:22:35Z</time>
      </trkpt>
      <trkpt lat="44.58044" lon="5.88973">
        <ele>1232</ele>
        <time>2017-11-03T11:20:35Z</time>
      </trkpt>
      <trkpt lat="44.58022" lon="5.8895">
        <ele>1223</ele>
        <time>2017-11-03T11:18:35Z</time>
      </trkpt>
      <trkpt lat="44.58002" lon="5.88898">
        <ele>1211</ele>
        <time>2017-11-03T11:16:35Z</time>
      </trkpt>
      <trkpt lat="44.5801" lon="5.88855">
        <ele>1203</ele>
        <time>2017-11-03T11:14:35Z</time>
      </trkpt>
      <trkpt lat="44.58037" lon="5.88783">
        <ele>1196</ele>
        <time>2017-11-03T11:12:35Z</time>
      </trkpt>
      <trkpt lat="44.58063" lon="5.88762">
        <ele>1204</ele>
        <time>2017-11-03T11:10:35Z</time>
      </trkpt>
      <trkpt lat="44.58065" lon="5.88732">
        <ele>1197</ele>
        <time>2017-11-03T11:08:35Z</time>
      </trkpt>
      <trkpt lat="44.58101" lon="5.88673">
        <ele>1200</ele>
        <time>2017-11-03T11:06:35Z</time>
      </trkpt>
      <trkpt lat="44.58105" lon="5.88639">
        <ele>1192</ele>
        <time>2017-11-03T11:04:35Z</time>
      </trkpt>
      <trkpt lat="44.58139" lon="5.88612">
        <ele>1195</ele>
        <time>2017-11-03T11:02:35Z</time>
      </trkpt>
      <trkpt lat="44.58178" lon="5.8853">
        <ele>1179</ele>
        <time>2017-11-03T11:00:35Z</time>
      </trkpt>
      <trkpt lat="44.58161" lon="5.88495">
        <ele>1161</ele>
        <time>2017-11-03T10:58:35Z</time>
      </trkpt>
      <trkpt lat="44.5817" lon="5.88499">
        <ele>1166</ele>
        <time>2017-11-03T10:56:35Z</time>
      </trkpt>
      <trkpt lat="44.58228" lon="5.88457">
        <ele>1164</ele>
        <time>2017-11-03T10:54:35Z</time>
      </trkpt>
      <trkpt lat="44.58239" lon="5.88439">
        <ele>1158</ele>
        <time>2017-11-03T10:52:35Z</time>
      </trkpt>
      <trkpt lat="44.58271" lon="5.88427">
        <ele>1162</ele>
        <time>2017-11-03T10:50:35Z</time>
      </trkpt>
      <trkpt lat="44.58286" lon="5.88426">
        <ele>1166</ele>
        <time>2017-11-03T10:48:35Z</time>
      </trkpt>
      <trkpt lat="44.583" lon="5.88418">
        <ele>1167</ele>
        <time>2017-11-03T10:46:35Z</time>
      </trkpt>
      <trkpt lat="44.58301" lon="5.88405">
        <ele>1167</ele>
        <time>2017-11-03T10:44:35Z</time>
      </trkpt>
      <trkpt lat="44.5831" lon="5.884">
        <ele>1170</ele>
        <time>2017-11-03T10:42:35Z</time>
      </trkpt>
      <trkpt lat="44.58313" lon="5.88387">
        <ele>1171</ele>
        <time>2017-11-03T10:40:35Z</time>
      </trkpt>
      <trkpt lat="44.58308" lon="5.88375">
        <ele>1169</ele>
        <time>2017-11-03T10:38:35Z</time>
      </trkpt>
      <trkpt lat="44.58285" lon="5.88365">
        <ele>1159</ele>
        <time>2017-11-03T10:36:35Z</time>
      </trkpt>
      <trkpt lat="44.5828" lon="5.88353">
        <ele>1156</ele>
        <time>2017-11-03T10:34:35Z</time>
      </trkpt>
      <trkpt lat="44.58265" lon="5.88348">
        <ele>1149</ele>
        <time>2017-11-03T10:32:35Z</time>
      </trkpt>
      <trkpt lat="44.58217" lon="5.88304">
        <ele>1131</ele>
        <time>2017-11-03T10:30:35Z</time>
      </trkpt>
      <trkpt lat="44.58193" lon="5.88278">
        <ele>1126</ele>
        <time>2017-11-03T10:28:35Z</time>
      </trkpt>
      <trkpt lat="44.58139" lon="5.88244">
        <ele>1112</ele>
        <time>2017-11-03T10:26:35Z</time>
      </trkpt>
      <trkpt lat="44.58053" lon="5.88214">
        <ele>1093</ele>
        <time>2017-11-03T10:24:35Z</time>
      </trkpt>
      <trkpt lat="44.58004" lon="5.88203">
        <ele>1084</ele>
        <time>2017-11-03T10:22:35Z</time>
      </trkpt>
      <trkpt lat="44.57952" lon="5.88176">
        <ele>1080</ele>
        <time>2017-11-03T10:20:35Z</time>
      </trkpt>
      <trkpt lat="44.57918" lon="5.88189">
        <ele>1069</ele>
        <time>2017-11-03T10:18:35Z</time>
      </trkpt>
      <trkpt lat="44.57869" lon="5.88175">
        <ele>1060</ele>
        <time>2017-11-03T10:16:35Z</time>
      </trkpt>
      <trkpt lat="44.57794" lon="5.88164">
        <ele>1046</ele>
        <time>2017-11-03T10:14:35Z</time>
      </trkpt>
      <trkpt lat="44.57697" lon="5.88153">
        <ele>1026</ele>
        <time>2017-11-03T10:12:35Z</time>
      </trkpt>
      <trkpt lat="44.57673" lon="5.8814">
        <ele>1020</ele>
        <time>2017-11-03T10:10:35Z</time>
      </trkpt>
      <trkpt lat="44.57588" lon="5.88123">
        <ele>1004</ele>
        <time>2017-11-03T10:08:35Z</time>
      </trkpt>
      <trkpt lat="44.57475" lon="5.88061">
        <ele>992</ele>
        <time>2017-11-03T10:06:35Z</time>
      </trkpt>
      <trkpt lat="44.57413" lon="5.8806">
        <ele>985</ele>
        <time>2017-11-03T10:04:35Z</time>
      </trkpt>
      <trkpt lat="44.57361" lon="5.88053">
        <ele>978</ele>
        <time>2017-11-03T10:02:35Z</time>
      </trkpt>
      <trkpt lat="44.57316" lon="5.8804">
        <ele>970</ele>
        <time>2017-11-03T10:00:35Z</time>
      </trkpt>
      <trkpt lat="44.5728" lon="5.88018">
        <ele>961</ele>
        <time>2017-11-03T09:58:35Z</time>
      </trkpt>
      <trkpt lat="44.57242" lon="5.88023">
        <ele>960</ele>
        <time>2017-11-03T09:56:35Z</time>
      </trkpt>
      <trkpt lat="44.57177" lon="5.88037">
        <ele>959</ele>
        <time>2017-11-03T09:54:35Z</time>
      </trkpt>
      <trkpt lat="44.57127" lon="5.88009">
        <ele>947</ele>
        <time>2017-11-03T09:52:35Z</time>
      </trkpt>
      <trkpt lat="44.57059" lon="5.87998">
        <ele>939</ele>
        <time>2017-11-03T09:50:35Z</time>
      </trkpt>
      <trkpt lat="44.57019" lon="5.88001">
        <ele>938</ele>
        <time>2017-11-03T09:48:35Z</time>
      </trkpt>
      <trkpt lat="44.56968" lon="5.87989">
        <ele>930</ele>
        <time>2017-11-03T09:46:35Z</time>
      </trkpt>
      <trkpt lat="44.56913" lon="5.87999">
        <ele>924</ele>
        <time>2017-11-03T09:44:35Z</time>
      </trkpt>
      <trkpt lat="44.56848" lon="5.88033">
        <ele>918</ele>
        <time>2017-11-03T09:42:35Z</time>
      </trkpt>
      <trkpt lat="44.56818" lon="5.88076">
        <ele>918</ele>
        <time>2017-11-03T09:40:35Z</time>
      </trkpt>
      <trkpt lat="44.56815" lon="5.88082">
        <ele>918</ele>
        <time>2017-11-03T09:38:35Z</time>
      </trkpt>
    </trkseg>
  </trk>
</gpx>